Madison, WI

10:55 AM CDT on October 22, 2014 (GMT -0500)
UW | Change Station
CLOSE
Current Station
Personal Weather Station
Location: Madison, WI
Elevation: 892 ft
Nearby Weather Stations

Elev 892 ft 43.07 °N, 89.41 °W | Updated 29 seconds ago

Partly Cloudy
Partly Cloudy
47.5 °F
Feels Like 45 °F
N
5.0
Wind Variable Wind from SE
Gusts 12.0 mph

Today
High -- | Low -- °F
--% Chance of Precip.
Yesterday
High -- | Low -- °F
Precip. -- in
7:19 AM 6:03 PM
Waning Crescent, 2% visible
Pressure 30.39 in
Visibility 10.0 miles
Clouds Few 1800 ft
Windchill 45 °F
Dew Point 41 °F
Humidity 78%
Rainfall 0.00 in
Snow Depth Not available.
UV 0.0 out of 12
Pollen 1.20 out of 12
Air Quality Not available.
Flu Activity Sporadic
METAR KMSN 221453Z 00000KT 10SM FEW018 07/03 A3037 RMK AO2 SLP291 T00670033 51006

More Conditions Fewer Conditions

Pressure 30.39 in
Visibility 10.0 miles
Clouds Few 1800 ft
Windchill 45 °F
Dew Point 41 °F
Humidity 78%
Rainfall 0.00 in
Snow Depth Not available.
UV 0.0 out of 12
Pollen 1.20 out of 12
Air Quality Not available.
Flu Activity Sporadic
METAR KMSN 221453Z 00000KT 10SM FEW018 07/03 A3037 RMK AO2 SLP291 T00670033 51006

More Conditions Fewer Conditions

10-Day Weather Forecast

Almanac

Astronomy

Oct. 22, 2014 Rise Set
Actual Time 7:19 AM CDT 6:03 PM CDT
Civil Twilight 6:50 AM CDT 6:32 PM CDT
Nautical Twilight 6:17 AM CDT 7:05 PM CDT
Astronomical Twilight 5:44 AM CDT 7:38 PM CDT
Moon 5:59 AM CDT 5:31 PM CDT
Length of Visible Light 11h 41m
Length of Day
10h 44m
Tomorrow will be 2m 45s shorter.
Waning Crescent, 2% of the Moon is Illuminated
Today
Waning Crescent
Oct 23
New
Oct 30
First Quarter
Nov 6
Full
Nov 14
Last Quarter

Today's Extremes

State Highs State Lows

Community

WunderPhotos

Upload Photos

1,763,953 photos uploaded!

Nearby

Air Quality

  Air Quality AQ Index Pollutant
Yesterday Good
PM2.5
Wednesday Good
PM2.5
Thursday Good
PM2.5
Friday Good
PM2.5
Saturday Good
PM2.5
Sunday Good
PM2.5

Snow Depth

Station Depth Elevation
No new snow has been reported.

Earthquake Activity

City Distance Mag. Time & Date
No recent earthquake activity has been reported nearby.
Minimum magnitude displayed is 2.5.

Coastal Water Temperatures

Place Temperature
No Stations Reporting

Nearby Weather Stations